createdAt,value
2023-04-28T00:01:09.878Z,1.80
2023-04-28T00:06:13.618Z,1.80
2023-04-28T00:11:18.566Z,1.57
2023-04-28T00:16:22.254Z,1.60
2023-04-28T00:21:26.017Z,1.27
2023-04-28T00:26:30.920Z,1.00
2023-04-28T00:31:35.350Z,1.77
2023-04-28T00:36:38.994Z,1.50
2023-04-28T00:41:44.283Z,1.40
2023-04-28T00:46:48.076Z,1.90
2023-04-28T00:51:51.664Z,1.20
2023-04-28T00:56:56.991Z,1.30
2023-04-28T01:02:01.889Z,1.30
2023-04-28T01:07:05.605Z,1.60
2023-04-28T01:12:10.942Z,1.53
2023-04-28T01:17:19.187Z,1.40
2023-04-28T01:22:23.824Z,1.67
2023-04-28T01:27:29.466Z,1.13
2023-04-28T01:32:33.156Z,1.27
2023-04-28T01:37:36.722Z,1.20
2023-04-28T01:42:41.703Z,1.57
2023-04-28T01:47:45.375Z,1.13
2023-04-28T01:52:49.857Z,0.90
2023-04-28T01:57:54.766Z,1.03
2023-04-28T02:02:58.413Z,0.80
2023-04-28T02:08:02.071Z,1.43
2023-04-28T02:13:08.120Z,0.90
2023-04-28T02:18:12.016Z,0.80
2023-04-28T02:23:18.253Z,0.90
2023-04-28T02:28:23.118Z,0.90
2023-04-28T02:33:26.748Z,0.80
2023-04-28T02:38:31.107Z,1.20
2023-04-28T02:43:36.889Z,0.93
2023-04-28T02:48:41.322Z,1.00
2023-04-28T02:53:44.967Z,1.03
2023-04-28T02:58:50.077Z,1.30
2023-04-28T03:03:53.866Z,1.57
2023-04-28T03:08:57.606Z,1.20
2023-04-28T03:14:02.585Z,1.20
2023-04-28T03:19:06.194Z,1.60
2023-04-28T03:24:09.919Z,1.10
2023-04-28T03:29:15.038Z,1.30
2023-04-28T03:34:19.911Z,1.70
2023-04-28T03:39:23.618Z,1.70
2023-04-28T03:44:28.726Z,1.27
2023-04-28T03:49:32.392Z,1.40
2023-04-28T03:54:36.017Z,1.50
2023-04-28T03:59:41.636Z,1.60
2023-04-28T04:04:47.374Z,1.70
2023-04-28T04:09:51.406Z,1.60
2023-04-28T04:14:56.357Z,1.50
2023-04-28T04:20:00.183Z,1.50
2023-04-28T04:25:03.776Z,1.30
2023-04-28T04:30:10.225Z,2.03
2023-04-28T04:35:14.340Z,1.67
2023-04-28T04:40:17.929Z,1.50
2023-04-28T04:45:27.260Z,1.27
2023-04-28T04:50:30.953Z,1.20
2023-04-28T04:55:35.060Z,1.70
2023-04-28T05:00:41.541Z,1.43
2023-04-28T05:05:46.433Z,1.60
2023-04-28T05:10:56.748Z,2.10
2023-04-28T05:16:02.242Z,1.73
2023-04-28T05:21:12.667Z,1.83
2023-04-28T05:26:16.626Z,1.90
2023-04-28T05:31:21.910Z,2.00
2023-04-28T05:36:26.900Z,2.13
2023-04-28T05:41:30.411Z,2.07
2023-04-28T05:46:36.402Z,2.00
2023-04-28T05:51:40.447Z,1.97
2023-04-28T05:56:44.061Z,2.10
2023-04-28T06:01:50.746Z,2.13
2023-04-28T06:06:54.555Z,2.83
2023-04-28T06:11:58.630Z,2.27
2023-04-28T06:17:04.076Z,1.60
2023-04-28T06:22:07.948Z,2.00
2023-04-28T06:27:12.848Z,2.13
2023-04-28T06:32:17.816Z,2.43
2023-04-28T06:37:21.355Z,2.20
2023-04-28T06:42:26.036Z,1.93
2023-04-28T06:47:40.486Z,1.83
2023-04-28T06:52:45.741Z,2.30
2023-04-28T06:57:49.308Z,1.60
2023-04-28T07:02:55.117Z,2.43
2023-04-28T07:07:58.764Z,2.17
2023-04-28T07:13:02.388Z,1.87
2023-04-28T07:18:07.514Z,1.90
2023-04-28T07:23:11.345Z,2.60
2023-04-28T07:28:14.953Z,2.20
2023-04-28T07:33:20.074Z,2.27
2023-04-28T07:38:23.676Z,1.80
2023-04-28T07:43:27.336Z,2.77
2023-04-28T07:48:32.530Z,2.03
2023-04-28T07:53:36.919Z,1.43
2023-04-28T07:58:40.780Z,1.80
2023-04-28T08:03:46.203Z,1.50
2023-04-28T08:08:49.996Z,2.47
2023-04-28T08:13:53.899Z,2.50
2023-04-28T08:18:59.660Z,2.03
2023-04-28T08:24:03.339Z,1.57
2023-04-28T08:29:07.233Z,1.70
2023-04-28T08:34:13.102Z,1.80
2023-04-28T08:39:19.538Z,1.83
2023-04-28T08:44:23.701Z,1.90
2023-04-28T08:49:36.654Z,1.83
2023-04-28T08:54:41.668Z,2.10
2023-04-28T08:59:45.368Z,1.57
2023-04-28T09:04:50.362Z,2.10
2023-04-28T09:10:17.950Z,1.53
2023-04-28T09:15:30.609Z,2.10
2023-04-28T09:20:38.163Z,1.63
2023-04-28T09:25:41.728Z,1.77
2023-04-28T09:30:45.245Z,1.50
2023-04-28T09:35:50.343Z,1.90
2023-04-28T09:40:58.859Z,1.07
2023-04-28T09:46:04.399Z,1.10
2023-04-28T09:51:12.388Z,1.70
2023-04-28T09:56:19.565Z,1.77
2023-04-28T10:01:23.599Z,1.40
2023-04-28T10:06:29.902Z,1.43
2023-04-28T10:11:34.848Z,0.93
2023-04-28T10:16:39.168Z,1.40
2023-04-28T10:22:04.138Z,0.93
2023-04-28T10:27:10.101Z,1.07
2023-04-28T10:32:28.930Z,1.27
2023-04-28T10:38:06.907Z,0.90
2023-04-28T10:43:11.461Z,1.40
2023-04-28T10:48:15.164Z,1.10
2023-04-28T10:53:20.116Z,1.10
2023-04-28T10:58:34.078Z,1.13
2023-04-28T11:03:51.504Z,1.30
2023-04-28T11:09:00.370Z,1.33
2023-04-28T11:14:34.960Z,1.93
2023-04-28T11:19:40.360Z,1.40
2023-04-28T11:24:57.648Z,1.03
2023-04-28T11:30:01.498Z,0.90
2023-04-28T11:35:09.574Z,1.20
2023-04-28T11:40:15.974Z,0.97
2023-04-28T11:45:19.806Z,0.90
2023-04-28T11:50:37.129Z,2.40
2023-04-28T11:55:42.303Z,1.70
2023-04-28T12:00:46.147Z,1.83
2023-04-28T12:05:49.773Z,1.00
2023-04-28T12:11:10.824Z,1.03
2023-04-28T12:16:14.403Z,0.70
2023-04-28T12:21:22.837Z,0.50
2023-04-28T12:26:27.997Z,0.80
2023-04-28T12:31:32.336Z,0.67
2023-04-28T12:36:35.949Z,1.00
2023-04-28T12:41:40.873Z,1.00
2023-04-28T12:46:44.625Z,0.80
2023-04-28T12:51:48.193Z,0.87
2023-04-28T12:56:54.515Z,0.90
2023-04-28T13:01:58.336Z,1.30
2023-04-28T13:07:02.401Z,0.90
2023-04-28T13:12:08.485Z,0.87
2023-04-28T13:17:12.822Z,0.80
2023-04-28T13:22:16.888Z,0.90
2023-04-28T13:27:21.864Z,0.70
2023-04-28T13:32:28.116Z,0.50
2023-04-28T13:37:32.902Z,0.57
2023-04-28T13:42:37.804Z,0.60
2023-04-28T13:47:41.369Z,0.60
2023-04-28T13:52:44.996Z,0.77
2023-04-28T13:57:49.884Z,0.50
2023-04-28T14:02:53.982Z,0.70
2023-04-28T14:07:58.120Z,0.70
2023-04-28T14:13:03.120Z,0.67
2023-04-28T14:18:07.373Z,0.60
2023-04-28T14:23:11.039Z,0.70
2023-04-28T14:28:16.222Z,0.70
2023-04-28T14:33:19.837Z,0.70
2023-04-28T14:38:23.645Z,0.60
2023-04-28T14:43:28.553Z,0.63
2023-04-28T14:48:33.314Z,0.50
2023-04-28T14:53:36.870Z,0.70
2023-04-28T14:58:42.112Z,0.60
2023-04-28T15:03:46.087Z,0.70
2023-04-28T15:08:49.904Z,0.60
2023-04-28T15:13:54.959Z,0.60
2023-04-28T15:18:58.731Z,0.70
2023-04-28T15:24:02.237Z,0.50
2023-04-28T15:29:07.558Z,0.47
2023-04-28T15:34:11.341Z,0.40
2023-04-28T15:39:16.014Z,0.40
2023-04-28T15:44:20.911Z,0.43
2023-04-28T15:49:24.400Z,0.50
2023-04-28T15:54:30.192Z,0.50
2023-04-28T15:59:35.514Z,0.57
2023-04-28T16:04:39.261Z,0.57
2023-04-28T16:09:42.930Z,0.60
2023-04-28T16:14:50.001Z,0.70
2023-04-28T16:19:54.826Z,0.80
2023-04-28T16:25:00.407Z,0.80
2023-04-28T16:30:07.478Z,0.63
2023-04-28T16:35:15.202Z,1.10
2023-04-28T16:40:19.208Z,0.63
2023-04-28T16:45:24.563Z,0.70
2023-04-28T16:50:28.194Z,0.70
2023-04-28T16:55:31.735Z,0.70
2023-04-28T17:00:36.649Z,0.60
2023-04-28T17:05:40.368Z,0.53
2023-04-28T17:10:43.944Z,0.70
2023-04-28T17:15:55.140Z,0.40
2023-04-28T17:20:58.655Z,0.50
2023-04-28T17:26:03.295Z,0.37
2023-04-28T17:31:08.379Z,0.37
2023-04-28T17:36:11.989Z,0.40
2023-04-28T17:41:16.685Z,0.30
2023-04-28T17:46:22.514Z,0.27
2023-04-28T17:51:27.309Z,0.30
2023-04-28T17:56:31.065Z,0.40
2023-04-28T18:01:37.193Z,0.43
2023-04-28T18:06:40.714Z,0.30
2023-04-28T18:11:44.270Z,0.40
2023-04-28T18:16:49.645Z,0.40
2023-04-28T18:21:54.963Z,0.40
2023-04-28T18:26:58.573Z,0.40
2023-04-28T18:32:03.566Z,0.20
2023-04-28T18:37:07.792Z,0.33
2023-04-28T18:42:11.612Z,0.37
2023-04-28T18:47:16.502Z,0.40
2023-04-28T18:52:20.254Z,0.30
2023-04-28T18:57:23.998Z,0.30
2023-04-28T19:02:29.181Z,0.30
2023-04-28T19:07:32.977Z,0.27
2023-04-28T19:12:36.967Z,0.30
2023-04-28T19:17:42.208Z,0.30
2023-04-28T19:22:47.094Z,0.40
2023-04-28T19:27:51.092Z,0.30
2023-04-28T19:32:56.248Z,0.60
2023-04-28T19:38:00.015Z,0.40
2023-04-28T19:43:04.022Z,0.60
2023-04-28T19:48:09.576Z,0.50
2023-04-28T19:53:13.598Z,0.40
2023-04-28T19:58:17.372Z,0.33
2023-04-28T20:03:22.606Z,0.30
2023-04-28T20:08:27.562Z,0.30
2023-04-28T20:13:31.257Z,0.40
2023-04-28T20:18:36.766Z,0.40
2023-04-28T20:23:40.293Z,0.60
2023-04-28T20:28:46.444Z,0.30
2023-04-28T20:33:51.402Z,0.30
2023-04-28T20:38:55.101Z,0.50
2023-04-28T20:44:02.217Z,0.43
2023-04-28T20:49:08.106Z,0.30
2023-04-28T20:54:11.724Z,0.60
2023-04-28T20:59:15.315Z,0.50
2023-04-28T21:04:20.239Z,0.47
2023-04-28T21:09:24.970Z,0.70
2023-04-28T21:14:29.030Z,1.57
2023-04-28T21:19:34.355Z,0.80
2023-04-28T21:24:38.309Z,0.50
2023-04-28T21:29:42.188Z,0.50
2023-04-28T21:34:49.773Z,0.40
2023-04-28T21:39:53.552Z,0.30
2023-04-28T21:44:57.271Z,0.70
2023-04-28T21:50:02.308Z,0.30
2023-04-28T21:55:08.108Z,0.30
2023-04-28T22:00:12.989Z,0.53
2023-04-28T22:05:21.021Z,0.40
2023-04-28T22:10:24.736Z,0.47
2023-04-28T22:15:28.464Z,0.37
2023-04-28T22:20:33.462Z,0.30
2023-04-28T22:25:36.960Z,0.30
2023-04-28T22:30:40.681Z,0.50
2023-04-28T22:35:45.618Z,0.30
2023-04-28T22:40:49.284Z,0.30
2023-04-28T22:45:53.470Z,0.60
2023-04-28T22:50:58.413Z,0.40
2023-04-28T22:56:03.054Z,0.50
2023-04-28T23:01:06.745Z,0.50
2023-04-28T23:06:11.726Z,0.50
2023-04-28T23:11:15.507Z,0.90
2023-04-28T23:16:19.206Z,0.93
2023-04-28T23:21:24.219Z,0.70
2023-04-28T23:26:27.755Z,0.73
2023-04-28T23:31:31.589Z,1.00
2023-04-28T23:36:36.716Z,1.10
2023-04-28T23:41:40.990Z,1.20
2023-04-28T23:46:44.649Z,1.30
2023-04-28T23:51:49.573Z,1.40
2023-04-28T23:56:53.121Z,1.60
